Flight Track Log - Related Links

Times and Time Zones

All times are in EDT time to prevent confusion due to time zone crossing. See the RPA3247 flight status page for this flight to view local times or setup timezone preferences in your user account.

Time Position Orientation Groundspeed Altitude Reporting Facility
EDT Latitude Longitude Course Direction KTS MPH feet Rate Location/Type
Mon 09:37:48 PM 38.8833 -77.0500 180° South 169 194 1,500  Level Potomac TRACON
Mon 09:38:54 PM 38.9333 -77.1167 314° West 255 293 3,100 2,381 Climbing Potomac TRACON
Mon 09:39:00 PM 38.5973 -76.7639 142° Southeast  Level FlightAware Approximate
Mon 09:39:54 PM 38.9833 -77.1833 314° West 303 349 6,500  Level Potomac TRACON
Mon 09:40:00 PM 38.4994 -76.7099 171° South  Level FlightAware Approximate
Mon 09:40:48 PM 38.9833 -77.2667 270° West 302 348 9,700  Level Potomac TRACON
Mon 09:41:00 PM 38.3890 -76.7000 180° South  Level FlightAware Approximate
Mon 09:41:48 PM 38.9167 -77.3333 218° Southwest 321 369 11,400  Level Potomac TRACON
Mon 09:42:00 PM 38.2910 -76.6833 180° South  Level FlightAware Approximate
Mon 09:42:48 PM 38.8333 -77.4000 212° Southwest 346 398 14,200  Level Potomac TRACON
Mon 09:43:00 PM 38.1812 -76.6667 180° South  Level FlightAware Approximate
Mon 09:43:48 PM 38.7667 -77.4833 224° Southwest 363 418 16,600  Level Potomac TRACON
Mon 09:45:49 PM 38.6019 -77.6372 216° Southwest 378 435 21,000 2,287 Climbing Washington Center
Mon 09:46:49 PM 38.5236 -77.7147 218° Southwest 371 427 23,500 1,934 Climbing Washington Center
Mon 09:47:50 PM 38.4547 -77.8242 231° Southwest 371 427 24,900 1,613 Climbing Washington Center
Mon 09:48:48 PM 38.3942 -77.9442 237° Southwest 394 453 26,700 1,059 Climbing Washington Center
Mon 09:49:49 PM 38.3292 -78.0692 236° Southwest 418 481 27,000 793 Climbing Washington Center
Mon 09:50:49 PM 38.2597 -78.1992 236° Southwest 439 505 28,300 1,488 Climbing Washington Center
Mon 09:51:50 PM 38.1942 -78.3261 237° Southwest 439 505 30,000 843 Climbing Washington Center
Mon 09:52:50 PM 38.1244 -78.4583 236° Southwest 444 511 30,000  Level Washington Center
Mon 09:53:48 PM 38.0769 -78.6069 248° West 449 517 30,000  Level Washington Center
Mon 09:54:49 PM 38.0253 -78.7578 247° West 461 531 30,000  Level Washington Center
Mon 09:55:50 PM 37.9753 -78.9058 247° West 466 536 30,000  Level Washington Center
Mon 09:56:51 PM 37.9183 -79.0717 247° West 471 542 30,000  Level Washington Center
Mon 09:57:48 PM 37.8539 -79.2108 240° Southwest 471 542 30,000  Level Washington Center
Mon 09:58:49 PM 37.7869 -79.3467 238° Southwest 464 534 30,000  Level Washington Center
Mon 09:59:50 PM 37.7247 -79.4697 237° Southwest 464 534 30,000  Level Washington Center
Mon 10:00:48 PM 37.6489 -79.6181 237° Southwest 464 534 30,000  Level Washington Center
Mon 10:01:48 PM 37.6006 -79.7492 245° Southwest 464 534 30,000  Level Washington Center
Mon 10:02:48 PM 37.5364 -79.9133 244° Southwest 472 543 30,000  Level Washington Center
Mon 10:03:49 PM 37.4811 -80.0592 245° Southwest 477 549 30,000  Level Washington Center
Mon 10:04:50 PM 37.4281 -80.1897 243° Southwest 472 543 30,000  Level Washington Center
Mon 10:05:48 PM 37.3747 -80.3275 244° Southwest 461 531 30,000  Level Washington Center
Mon 10:06:09 PM 37.3528 -80.3786 242° Southwest 450 518 30,000  Level Atlanta Center
Mon 10:08:09 PM 37.2400 -80.6628 244° Southwest 450 518 30,000  Level Atlanta Center
Mon 10:09:09 PM 37.1856 -80.8058 245° Southwest 455 524 30,000  Level Atlanta Center
Mon 10:10:09 PM 37.1228 -80.9594 243° Southwest 455 524 30,000  Level Atlanta Center
Mon 10:11:09 PM 37.0678 -81.0994 244° Southwest 455 524 30,000  Level Atlanta Center
Mon 10:12:09 PM 37.0086 -81.2447 243° Southwest 455 524 30,000  Level Atlanta Center
Mon 10:13:09 PM 36.9533 -81.3842 244° Southwest 455 524 30,000  Level Atlanta Center
Mon 10:14:09 PM 36.8997 -81.5131 243° Southwest 455 524 30,000  Level Atlanta Center
Mon 10:15:09 PM 36.8406 -81.6733 245° Southwest 462 532 30,000  Level Atlanta Center
Mon 10:16:09 PM 36.7886 -81.7992 243° Southwest 462 532 30,000  Level Atlanta Center
Mon 10:17:09 PM 36.7306 -81.9433 243° Southwest 462 532 30,000  Level Atlanta Center
Mon 10:18:09 PM 36.6706 -82.0847 242° Southwest 462 532 30,000  Level Atlanta Center
Mon 10:19:09 PM 36.6122 -82.2283 243° Southwest 462 532 30,000  Level Atlanta Center
Mon 10:20:09 PM 36.5536 -82.3692 243° Southwest 457 526 30,000  Level Atlanta Center
Mon 10:21:09 PM 36.4931 -82.5125 242° Southwest 457 526 30,000  Level Atlanta Center
Mon 10:22:09 PM 36.4342 -82.6531 243° Southwest 457 526 30,000  Level Atlanta Center
Mon 10:23:09 PM 36.3753 -82.7958 243° Southwest 457 526 30,000  Level Atlanta Center
Mon 10:25:09 PM 36.2547 -83.0758 242° Southwest 457 526 30,000  Level Atlanta Center
Mon 10:26:09 PM 36.1931 -83.2181 242° Southwest 457 526 30,000  Level Atlanta Center
Mon 10:27:09 PM 36.1336 -83.3600 243° Southwest 457 526 30,000  Level Atlanta Center
Mon 10:28:09 PM 36.0758 -83.5017 243° Southwest 462 532 30,000  Level Atlanta Center
Mon 10:29:09 PM 36.0014 -83.6539 239° Southwest 462 532 30,000  Level Atlanta Center
Mon 10:30:09 PM 35.9203 -83.7747 230° Southwest 467 537 30,000  Level Atlanta Center
Mon 10:31:09 PM 35.8350 -83.9003 230° Southwest 472 543 30,000  Level Atlanta Center
Mon 10:32:09 PM 35.7494 -84.0233 229° Southwest 477 549 30,000  Level Atlanta Center
Mon 10:33:09 PM 35.6661 -84.1411 229° Southwest 477 549 30,000  Level Atlanta Center
Mon 10:34:09 PM 35.5825 -84.2633 230° Southwest 477 549 30,000  Level Atlanta Center
Mon 10:35:09 PM 35.5072 -84.3703 229° Southwest 477 549 30,000  Level Atlanta Center
Mon 10:36:09 PM 35.4211 -84.4950 230° Southwest 477 549 30,000  Level Atlanta Center
Mon 10:37:09 PM 35.3394 -84.6117 229° Southwest 477 549 30,000  Level Atlanta Center
Mon 10:38:09 PM 35.2553 -84.7306 229° Southwest 472 543 30,000  Level Atlanta Center
Mon 10:39:09 PM 35.1731 -84.8467 229° Southwest 472 543 30,000  Level Atlanta Center
Mon 10:40:09 PM 35.0869 -84.9628 228° Southwest 472 543 30,000  Level Atlanta Center
Mon 10:41:09 PM 35.0044 -85.0808 230° Southwest 472 543 30,000  Level Atlanta Center
Mon 10:42:09 PM 34.9219 -85.1964 229° Southwest 467 537 30,000  Level Atlanta Center
Mon 10:43:09 PM 34.8394 -85.3142 230° Southwest 462 532 30,000  Level Atlanta Center
Mon 10:44:09 PM 34.7547 -85.4317 229° Southwest 462 532 30,000  Level Atlanta Center
Mon 10:46:09 PM 34.5808 -85.6686 228° Southwest 467 537 30,000  Level Atlanta Center
Mon 10:47:09 PM 34.4936 -85.7853 228° Southwest 472 543 30,000  Level Atlanta Center
Mon 10:48:09 PM 34.4125 -85.9019 230° Southwest 466 536 30,000  Level Atlanta Center
Mon 10:49:09 PM 34.3231 -86.0183 227° Southwest 466 536 30,000  Level Atlanta Center
Mon 10:50:09 PM 34.2378 -86.1369 229° Southwest 471 542 30,000  Level Atlanta Center
Mon 10:51:09 PM 34.1522 -86.2553 229° Southwest 471 542 30,000  Level Atlanta Center
Mon 10:52:09 PM 34.0667 -86.3683 228° Southwest 471 542 30,000  Level Atlanta Center
Mon 10:53:09 PM 33.9808 -86.4839 228° Southwest 471 542 30,000  Level Atlanta Center
Mon 10:54:09 PM 33.8928 -86.5989 227° Southwest 471 542 30,000  Level Atlanta Center
Mon 10:56:09 PM 33.7189 -86.8311 228° Southwest 471 542 30,000  Level Atlanta Center
Mon 10:57:09 PM 33.6369 -86.9456 229° Southwest 471 542 30,000  Level Atlanta Center
Mon 10:58:09 PM 33.5589 -87.0625 231° Southwest 466 536 30,000  Level Atlanta Center
Mon 11:00:08 PM 33.4086 -87.2914 232° Southwest 473 544 30,000  Level Memphis Center
Mon 11:01:08 PM 33.3300 -87.4061 231° Southwest 461 531 30,000  Level Memphis Center
Mon 11:02:08 PM 33.2533 -87.5228 232° Southwest 456 525 30,000  Level Memphis Center
Mon 11:03:08 PM 33.1764 -87.6344 231° Southwest 456 525 30,000  Level Memphis Center
Mon 11:04:08 PM 33.0997 -87.7511 232° Southwest 451 519 30,000  Level Memphis Center
Mon 11:05:08 PM 33.0247 -87.8597 231° Southwest 451 519 30,000  Level Memphis Center
Mon 11:06:08 PM 32.9456 -87.9858 233° Southwest 445 512 30,000  Level Memphis Center
Mon 11:07:08 PM 32.8706 -88.0992 232° Southwest 445 512 30,000 -200 Level Memphis Center
Mon 11:08:08 PM 32.7931 -88.2072 230° Southwest 445 512 29,600 -550 Descending Memphis Center
Mon 11:09:08 PM 32.7200 -88.3203 232° Southwest 440 506 28,900 -750 Descending Memphis Center
Mon 11:10:08 PM 32.6422 -88.4281 229° Southwest 440 506 28,100 -450 Descending Memphis Center
Mon 11:11:08 PM 32.5667 -88.5356 230° Southwest 435 501 28,000 -50 Descending Memphis Center
Mon 11:12:09 PM 32.4908 -88.6431 230° Southwest 435 501 28,000  Level Memphis Center
Mon 11:13:08 PM 32.4172 -88.7528 232° Southwest 435 501 28,000  Level Memphis Center
Mon 11:14:08 PM 32.3328 -88.8503 224° Southwest 430 495 28,000  Level Memphis Center
Mon 11:15:08 PM 32.2400 -88.9425 220° Southwest 435 501 28,000  Level Memphis Center
Mon 11:16:08 PM 32.1450 -89.0325 219° Southwest 440 506 28,000  Level Memphis Center
Mon 11:17:08 PM 32.0500 -89.1219 219° Southwest 440 506 28,000  Level Memphis Center
Mon 11:18:08 PM 31.9569 -89.2139 220° Southwest 440 506 28,000 -187 Level Memphis Center
Mon 11:20:21 PM 31.7619 -89.4000 219° Southwest 409 471 27,400 -433 Descending Houston Center
Mon 11:21:22 PM 31.6753 -89.4822 219° Southwest 404 465 26,600 -689 Descending Houston Center
Mon 11:22:23 PM 31.5914 -89.5628 219° Southwest 400 460 26,000 -295 Descending Houston Center
Mon 11:23:24 PM 31.5058 -89.6433 219° Southwest 397 457 26,000  Level Houston Center
Mon 11:24:25 PM 31.4181 -89.7267 219° Southwest 404 465 26,000  Level Houston Center
Mon 11:25:26 PM 31.3267 -89.8097 218° Southwest 415 478 26,000 -496 Level Houston Center
Mon 11:26:26 PM 31.2161 -89.8658 203° Southwest 432 497 25,000 -1,785 Descending Houston Center
Mon 11:27:27 PM 31.0889 -89.9306 204° Southwest 419 482 22,400 -2,311 Descending Houston Center
Mon 11:28:28 PM 30.9861 -89.9811 203° Southwest 405 466 20,300 -2,066 Descending Houston Center
Mon 11:29:29 PM 30.8878 -90.0300 203° Southwest 389 448 18,200 -2,016 Descending Houston Center
Mon 11:30:30 PM 30.7922 -90.0772 203° Southwest 377 434 16,200 -1,983 Descending Houston Center
Mon 11:31:30 PM 30.6961 -90.1253 203° Southwest 378 435 14,200 -1,947 Descending Houston Center
Mon 11:32:24 PM 30.6106 -90.1606 200° South 355 409 12,500 -1,895 Descending Houston Center
Mon 11:33:24 PM 30.5106 -90.1719 186° South 331 381 10,600 -1,774 Descending Houston Center
Mon 11:34:19 PM 30.4378 -90.1797 185° South 313 360 9,100 -1,759 Descending Houston Center
Mon 11:35:20 PM 30.3522 -90.1881 185° South 303 349 7,200 -1,884 Descending Houston Center
Mon 11:36:20 PM 30.2647 -90.1989 186° South 288 331 5,300 -1,565 Descending Houston Center
Mon 11:37:15 PM 30.2044 -90.2039 184° South 261 300 4,200 -1,120 Descending Houston Center
Mon 11:37:35 PM 30.1906 -90.2050 184° South 279 321 3,900 -1,400 Descending Houston Center
Mon 11:38:15 PM 30.1378 -90.2114 186° South 213 245 2,800 -1,475 Descending Houston Center
Mon 11:38:36 PM 30.1200 -90.2119 182° South 238 274 2,400 -984 Descending Houston Center
Mon 11:39:16 PM 30.0858 -90.2206 192° South 181 208 1,800 -1,000 Descending Houston Center
Mon 11:39:36 PM 30.0703 -90.2225 186° South 209 241 1,400 -1,200 Descending Houston Center

Login

Don't have an account? Register now (free) for customized features, flight alerts, and more!